createdAt,value
2022-09-06T00:00:30.671Z,21.10
2022-09-06T00:03:02.915Z,21.00
2022-09-06T00:05:36.234Z,20.80
2022-09-06T00:08:08.297Z,20.60
2022-09-06T00:10:41.820Z,20.60
2022-09-06T00:13:14.325Z,20.60
2022-09-06T00:15:46.926Z,20.50
2022-09-06T00:18:19.890Z,20.40
2022-09-06T00:20:52.055Z,20.40
2022-09-06T00:23:24.155Z,20.40
2022-09-06T00:26:05.068Z,20.40
2022-09-06T00:28:37.574Z,20.40
2022-09-06T00:31:14.327Z,20.30
2022-09-06T00:33:46.227Z,20.20
2022-09-06T00:36:19.242Z,20.60
2022-09-06T00:38:50.986Z,20.40
2022-09-06T00:41:23.516Z,20.40
2022-09-06T00:43:55.643Z,20.40
2022-09-06T00:46:28.848Z,20.40
2022-09-06T00:49:13.076Z,20.50
2022-09-06T00:51:44.723Z,20.50
2022-09-06T00:54:17.285Z,20.50
2022-09-06T00:56:49.973Z,20.50
2022-09-06T00:59:22.328Z,20.50
2022-09-06T01:01:55.059Z,20.50
2022-09-06T01:04:28.249Z,20.50
2022-09-06T01:07:00.312Z,20.50
2022-09-06T01:09:38.395Z,20.60
2022-09-06T01:12:10.863Z,20.60
2022-09-06T01:14:49.028Z,20.70
2022-09-06T01:17:20.825Z,20.60
2022-09-06T01:20:12.076Z,21.40
2022-09-06T01:23:04.693Z,20.80
2022-09-06T01:25:43.309Z,20.80
2022-09-06T01:28:33.194Z,20.90
2022-09-06T01:31:16.998Z,20.70
2022-09-06T01:34:04.407Z,20.60
2022-09-06T01:36:45.922Z,20.60
2022-09-06T01:39:28.668Z,20.50
2022-09-06T01:42:21.139Z,20.60
2022-09-06T01:44:55.122Z,20.70
2022-09-06T01:47:45.936Z,20.70
2022-09-06T01:50:34.661Z,20.80
2022-09-06T01:53:07.143Z,20.90
2022-09-06T01:56:03.224Z,21.80
2022-09-06T01:58:59.071Z,20.90
2022-09-06T02:01:46.360Z,20.90
2022-09-06T02:04:23.325Z,21.00
2022-09-06T02:07:00.825Z,20.90
2022-09-06T02:09:37.746Z,20.90
2022-09-06T02:12:13.141Z,21.00
2022-09-06T02:14:50.102Z,21.30
2022-09-06T02:17:25.961Z,21.00
2022-09-06T02:20:04.974Z,20.90
2022-09-06T02:22:39.921Z,20.90
2022-09-06T02:25:13.211Z,21.00
2022-09-06T02:27:45.887Z,20.90
2022-09-06T02:30:17.569Z,21.00
2022-09-06T02:33:13.440Z,21.10
2022-09-06T02:35:47.190Z,21.20
2022-09-06T02:38:22.007Z,21.40
2022-09-06T02:40:54.167Z,20.90
2022-09-06T02:43:26.663Z,21.00
2022-09-06T02:45:58.357Z,21.00
2022-09-06T02:48:30.929Z,21.30
2022-09-06T02:51:03.686Z,21.40
2022-09-06T02:53:36.585Z,23.00
2022-09-06T02:56:08.549Z,21.40
2022-09-06T02:58:41.117Z,21.50
2022-09-06T03:01:13.260Z,21.50
2022-09-06T03:03:45.433Z,21.60
2022-09-06T03:06:17.150Z,21.50
2022-09-06T03:08:49.830Z,21.40
2022-09-06T03:11:21.574Z,21.40
2022-09-06T03:13:54.190Z,21.40
2022-09-06T03:16:25.914Z,22.40
2022-09-06T03:18:58.424Z,21.50
2022-09-06T03:21:34.186Z,21.40
2022-09-06T03:24:06.836Z,21.40
2022-09-06T03:26:38.491Z,21.30
2022-09-06T03:29:11.328Z,21.20
2022-09-06T03:31:42.983Z,21.20
2022-09-06T03:34:15.464Z,21.10
2022-09-06T03:36:47.159Z,20.70
2022-09-06T03:39:19.695Z,20.50
2022-09-06T03:41:51.430Z,20.40
2022-09-06T03:44:24.092Z,20.40
2022-09-06T03:46:56.200Z,20.50
2022-09-06T03:49:27.850Z,20.40
2022-09-06T03:52:00.392Z,20.50
2022-09-06T03:54:32.480Z,20.50
2022-09-06T03:57:04.651Z,20.40
2022-09-06T03:59:36.453Z,20.30
2022-09-06T04:02:09.049Z,20.20
2022-09-06T04:04:41.301Z,20.10
2022-09-06T04:07:14.354Z,20.10
2022-09-06T04:09:45.985Z,20.20
2022-09-06T04:12:18.502Z,20.30
2022-09-06T04:14:50.763Z,20.30
2022-09-06T04:17:22.449Z,20.30
2022-09-06T04:19:54.980Z,20.40
2022-09-06T04:22:27.089Z,20.50
2022-09-06T04:24:58.920Z,20.50
2022-09-06T04:27:31.397Z,20.50
2022-09-06T04:30:04.113Z,20.60
2022-09-06T04:32:35.866Z,20.50
2022-09-06T04:35:08.716Z,20.70
2022-09-06T04:37:40.933Z,20.80
2022-09-06T04:40:13.092Z,20.70
2022-09-06T04:42:44.745Z,20.80
2022-09-06T04:45:17.248Z,20.70
2022-09-06T04:47:50.334Z,20.70
2022-09-06T04:50:23.456Z,20.50
2022-09-06T04:52:55.130Z,20.50
2022-09-06T04:55:29.644Z,20.60
2022-09-06T04:58:01.568Z,20.90
2022-09-06T05:00:35.031Z,21.10
2022-09-06T05:03:06.719Z,21.10
2022-09-06T05:05:39.198Z,21.00
2022-09-06T05:08:11.384Z,21.00
2022-09-06T05:10:43.480Z,21.20
2022-09-06T05:13:15.150Z,20.90
2022-09-06T05:15:47.695Z,21.10
2022-09-06T05:18:19.384Z,21.30
2022-09-06T05:20:52.760Z,21.30
2022-09-06T05:23:25.045Z,21.30
2022-09-06T05:25:57.573Z,21.30
2022-09-06T05:28:29.440Z,21.80
2022-09-06T05:31:12.726Z,22.40
2022-09-06T05:33:44.970Z,21.20
2022-09-06T05:36:16.664Z,21.40
2022-09-06T05:38:51.742Z,21.80
2022-09-06T05:41:24.175Z,21.70
2022-09-06T05:43:56.730Z,21.80
2022-09-06T05:46:28.666Z,22.70
2022-09-06T05:49:05.115Z,21.70
2022-09-06T05:51:37.240Z,22.90
2022-09-06T05:54:11.036Z,21.80
2022-09-06T05:56:43.556Z,21.90
2022-09-06T05:59:15.753Z,21.90
2022-09-06T06:01:51.869Z,22.00
2022-09-06T06:04:24.449Z,22.70
2022-09-06T06:06:56.144Z,22.20
2022-09-06T06:09:28.747Z,22.10
2022-09-06T06:12:00.655Z,22.00
2022-09-06T06:14:33.284Z,22.20
2022-09-06T06:17:04.968Z,22.40
2022-09-06T06:19:37.892Z,22.50
2022-09-06T06:22:09.644Z,24.50
2022-09-06T06:24:42.212Z,22.80
2022-09-06T06:27:13.924Z,23.50
2022-09-06T06:29:46.476Z,23.20
2022-09-06T06:32:18.589Z,23.10
2022-09-06T06:34:50.662Z,24.00
2022-09-06T06:37:22.336Z,23.10
2022-09-06T06:39:54.904Z,23.10
2022-09-06T06:42:26.630Z,23.80
2022-09-06T06:44:59.372Z,23.20
2022-09-06T06:47:31.720Z,23.20
2022-09-06T06:50:03.937Z,23.10
2022-09-06T06:52:35.626Z,23.20
2022-09-06T06:55:08.304Z,23.20
2022-09-06T06:57:40.420Z,23.30
2022-09-06T07:00:12.760Z,22.10
2022-09-06T07:02:44.418Z,23.50
2022-09-06T07:08:08.648Z,23.40
2022-09-06T07:10:41.189Z,23.20
2022-09-06T07:13:13.948Z,22.90
2022-09-06T07:15:46.443Z,22.70
2022-09-06T07:18:18.318Z,22.80
2022-09-06T07:26:36.677Z,22.20
2022-09-06T07:29:09.507Z,23.70
2022-09-06T07:34:38.092Z,21.80
2022-09-06T07:37:10.161Z,22.80
2022-09-06T07:39:41.904Z,21.70
2022-09-06T07:42:14.430Z,22.00
2022-09-06T07:44:46.086Z,21.80
2022-09-06T07:53:07.130Z,22.30
2022-09-06T07:55:39.259Z,22.50
2022-09-06T07:58:11.908Z,22.00
2022-09-06T08:00:44.170Z,22.10
2022-09-06T08:03:16.278Z,21.80
2022-09-06T08:08:59.569Z,21.50
2022-09-06T08:11:36.117Z,21.60
2022-09-06T08:14:09.085Z,20.30
2022-09-06T08:16:41.667Z,21.70
2022-09-06T08:19:13.444Z,21.80
2022-09-06T08:21:45.999Z,21.80
2022-09-06T08:24:17.701Z,21.90
2022-09-06T08:26:50.637Z,21.90
2022-09-06T08:29:22.323Z,21.90
2022-09-06T08:31:54.951Z,22.00
2022-09-06T08:34:26.687Z,22.00
2022-09-06T08:36:59.172Z,22.00
2022-09-06T08:39:31.354Z,22.70
2022-09-06T08:42:05.332Z,21.80
2022-09-06T08:45:01.023Z,21.60
2022-09-06T08:47:33.530Z,21.50
2022-09-06T08:50:10.117Z,21.80
2022-09-06T08:53:16.795Z,21.70
2022-09-06T08:55:43.413Z,22.00
2022-09-06T08:58:34.013Z,22.50
2022-09-06T09:01:07.676Z,22.70
2022-09-06T09:03:40.144Z,23.10
2022-09-06T09:06:13.073Z,23.40
2022-09-06T09:08:54.701Z,23.60
2022-09-06T09:11:26.412Z,23.70
2022-09-06T09:13:59.736Z,23.70
2022-09-06T09:16:31.592Z,23.70
2022-09-06T09:19:05.556Z,23.70
2022-09-06T09:21:38.663Z,23.60
2022-09-06T09:24:12.126Z,23.50
2022-09-06T09:26:53.828Z,23.60
2022-09-06T09:29:28.674Z,26.00
2022-09-06T09:32:03.537Z,26.40
2022-09-06T09:34:36.569Z,24.20
2022-09-06T09:40:06.964Z,24.60
2022-09-06T09:42:39.679Z,24.80
2022-09-06T09:45:20.474Z,25.20
2022-09-06T09:47:53.487Z,25.60
2022-09-06T09:50:31.079Z,25.40
2022-09-06T09:53:14.097Z,26.10
2022-09-06T09:55:46.486Z,26.30
2022-09-06T09:58:21.668Z,26.60
2022-09-06T10:01:33.725Z,27.60
2022-09-06T10:07:11.599Z,30.00
2022-09-06T10:09:46.663Z,30.00
2022-09-06T10:12:28.343Z,29.70
2022-09-06T10:15:02.440Z,29.00
2022-09-06T10:17:48.978Z,28.60
2022-09-06T10:20:22.500Z,28.80
2022-09-06T10:23:01.204Z,28.80
2022-09-06T10:25:46.272Z,28.60
2022-09-06T10:28:21.277Z,28.40
2022-09-06T10:31:35.597Z,27.90
2022-09-06T10:34:16.912Z,27.40
2022-09-06T10:37:08.237Z,26.60
2022-09-06T10:39:42.966Z,26.30
2022-09-06T10:42:20.226Z,26.30
2022-09-06T10:44:52.135Z,26.50
2022-09-06T10:47:30.523Z,27.00
2022-09-06T10:50:05.581Z,27.30
2022-09-06T10:52:41.877Z,27.30
2022-09-06T10:55:16.894Z,27.40
2022-09-06T11:00:47.691Z,27.60
2022-09-06T11:06:19.503Z,28.00
2022-09-06T11:09:08.171Z,28.00
2022-09-06T11:11:54.019Z,27.90
2022-09-06T11:14:27.712Z,28.00
2022-09-06T11:17:03.109Z,27.90
2022-09-06T11:19:43.098Z,28.20
2022-09-06T11:22:36.029Z,28.40
2022-09-06T11:25:14.425Z,28.80
2022-09-06T11:27:51.677Z,29.30
2022-09-06T11:30:26.449Z,29.10
2022-09-06T11:33:21.504Z,28.70
2022-09-06T11:35:54.474Z,28.80
2022-09-06T11:38:27.346Z,28.30
2022-09-06T11:41:01.407Z,28.40
2022-09-06T11:43:43.249Z,27.60
2022-09-06T11:46:33.433Z,27.70
2022-09-06T11:49:11.404Z,27.50
2022-09-06T11:51:44.535Z,27.40
2022-09-06T11:54:19.745Z,27.00
2022-09-06T11:57:00.875Z,26.70
2022-09-06T11:59:36.591Z,26.80
2022-09-06T12:02:28.771Z,26.80
2022-09-06T12:05:00.947Z,26.70
2022-09-06T12:07:38.117Z,26.80
2022-09-06T12:10:28.658Z,26.70
2022-09-06T12:13:01.148Z,26.60
2022-09-06T12:15:44.881Z,26.60
2022-09-06T12:18:35.718Z,26.70
2022-09-06T12:21:08.734Z,26.70
2022-09-06T12:23:41.243Z,26.80
2022-09-06T12:26:34.051Z,27.90
2022-09-06T12:29:09.340Z,26.60
2022-09-06T12:31:51.248Z,26.60
2022-09-06T12:34:25.404Z,26.70
2022-09-06T12:36:58.507Z,26.80
2022-09-06T12:39:31.240Z,27.00
2022-09-06T12:42:06.199Z,27.10
2022-09-06T12:44:49.550Z,27.20
2022-09-06T12:47:27.236Z,27.10
2022-09-06T12:50:08.616Z,27.20
2022-09-06T12:52:48.075Z,27.70
2022-09-06T12:55:22.872Z,28.30
2022-09-06T12:57:56.278Z,28.10
2022-09-06T13:00:48.210Z,28.30
2022-09-06T13:03:20.735Z,28.20
2022-09-06T13:05:54.019Z,28.40
2022-09-06T13:08:38.245Z,28.50
2022-09-06T13:11:11.287Z,28.40
2022-09-06T13:13:49.087Z,28.60
2022-09-06T13:16:27.960Z,28.50
2022-09-06T13:19:15.713Z,28.20
2022-09-06T13:21:47.864Z,28.00
2022-09-06T13:24:24.502Z,28.00
2022-09-06T13:26:56.241Z,27.80
2022-09-06T13:29:32.330Z,28.30
2022-09-06T13:32:06.068Z,28.70
2022-09-06T13:34:38.177Z,28.70
2022-09-06T13:37:11.175Z,28.80
2022-09-06T13:39:46.391Z,30.10
2022-09-06T13:42:31.634Z,29.80
2022-09-06T13:45:25.221Z,28.70
2022-09-06T13:48:13.140Z,28.80
2022-09-06T13:50:50.293Z,29.40
2022-09-06T13:53:22.794Z,29.70
2022-09-06T13:55:54.546Z,29.70
2022-09-06T13:58:27.908Z,29.90
2022-09-06T14:01:00.887Z,28.00
2022-09-06T14:03:33.256Z,29.40
2022-09-06T14:06:05.027Z,29.30
2022-09-06T14:09:05.418Z,29.20
2022-09-06T14:11:31.889Z,28.90
2022-09-06T14:14:04.751Z,28.70
2022-09-06T14:16:36.443Z,28.50
2022-09-06T14:19:08.913Z,28.30
2022-09-06T14:21:40.575Z,28.00
2022-09-06T14:24:13.141Z,27.90
2022-09-06T14:26:45.329Z,28.00
2022-09-06T14:29:17.415Z,28.20
2022-09-06T14:31:49.130Z,28.40
2022-09-06T14:34:21.945Z,28.50
2022-09-06T14:36:54.136Z,28.50
2022-09-06T14:39:25.898Z,28.60
2022-09-06T14:41:58.446Z,28.80
2022-09-06T14:44:30.117Z,29.10
2022-09-06T14:47:02.685Z,29.20
2022-09-06T14:49:34.963Z,27.00
2022-09-06T14:52:06.714Z,29.20
2022-09-06T14:54:39.189Z,30.20
2022-09-06T14:57:11.347Z,26.80
2022-09-06T14:59:43.497Z,29.00
2022-09-06T15:02:15.684Z,28.60
2022-09-06T15:04:47.575Z,28.40
2022-09-06T15:07:20.328Z,28.20
2022-09-06T15:09:52.002Z,28.10
2022-09-06T15:12:25.042Z,28.00
2022-09-06T15:14:57.045Z,28.00
2022-09-06T15:17:29.616Z,27.90
2022-09-06T15:20:01.593Z,27.60
2022-09-06T15:22:35.807Z,27.70
2022-09-06T15:25:07.673Z,27.70
2022-09-06T15:27:40.237Z,27.70
2022-09-06T15:30:12.587Z,27.50
2022-09-06T15:32:44.330Z,27.40
2022-09-06T15:35:17.995Z,27.40
2022-09-06T15:37:49.715Z,27.40
2022-09-06T15:40:22.426Z,27.50
2022-09-06T15:42:54.233Z,27.60
2022-09-06T15:45:27.353Z,27.60
2022-09-06T15:47:59.076Z,27.50
2022-09-06T15:50:50.308Z,28.10
2022-09-06T15:53:23.428Z,27.40
2022-09-06T15:56:00.138Z,27.30
2022-09-06T15:58:32.833Z,27.30
2022-09-06T16:01:13.107Z,27.70
2022-09-06T16:03:50.230Z,26.20
2022-09-06T16:09:04.029Z,28.00
2022-09-06T16:11:36.948Z,28.20
2022-09-06T16:14:10.950Z,28.20
2022-09-06T16:16:43.337Z,28.00
2022-09-06T16:19:16.026Z,27.60
2022-09-06T16:21:48.005Z,27.40
2022-09-06T16:24:21.764Z,27.10
2022-09-06T16:26:54.355Z,27.10
2022-09-06T16:29:27.223Z,26.80
2022-09-06T16:32:00.988Z,26.70
2022-09-06T16:34:33.117Z,26.40
2022-09-06T16:37:07.951Z,26.30
2022-09-06T16:39:41.114Z,26.20
2022-09-06T16:42:13.275Z,27.60
2022-09-06T16:44:46.025Z,25.90
2022-09-06T16:47:18.249Z,26.00
2022-09-06T16:49:49.919Z,25.90
2022-09-06T16:52:22.458Z,25.80
2022-09-06T16:54:55.410Z,25.80
2022-09-06T16:57:27.545Z,25.80
2022-09-06T16:59:59.662Z,25.80
2022-09-06T17:02:32.246Z,25.80
2022-09-06T17:05:04.286Z,25.80
2022-09-06T17:07:36.801Z,25.80
2022-09-06T17:10:08.699Z,25.80
2022-09-06T17:12:41.242Z,25.70
2022-09-06T17:15:12.936Z,25.60
2022-09-06T17:17:45.557Z,25.50
2022-09-06T17:20:20.511Z,25.50
2022-09-06T17:22:53.054Z,25.40
2022-09-06T17:25:24.714Z,25.30
2022-09-06T17:27:58.315Z,25.30
2022-09-06T17:30:30.226Z,25.40
2022-09-06T17:33:02.719Z,25.30
2022-09-06T17:35:36.224Z,25.30
2022-09-06T17:38:08.510Z,25.40
2022-09-06T17:40:40.616Z,25.00
2022-09-06T17:43:12.889Z,25.00
2022-09-06T17:45:45.009Z,24.90
2022-09-06T17:48:17.111Z,25.20
2022-09-06T17:50:49.795Z,24.60
2022-09-06T17:53:22.289Z,24.50
2022-09-06T17:55:53.949Z,25.20
2022-09-06T17:58:26.500Z,24.40
2022-09-06T18:01:01.593Z,24.30
2022-09-06T18:03:35.448Z,24.30
2022-09-06T18:06:12.497Z,24.20
2022-09-06T18:08:45.303Z,24.10
2022-09-06T18:11:22.769Z,23.90
2022-09-06T18:13:55.959Z,23.80
2022-09-06T18:16:28.852Z,23.60
2022-09-06T18:19:01.935Z,24.70
2022-09-06T18:21:35.230Z,24.80
2022-09-06T18:24:08.556Z,23.40
2022-09-06T18:26:41.478Z,23.40
2022-09-06T18:29:15.231Z,23.30
2022-09-06T18:31:47.573Z,23.20
2022-09-06T18:34:20.129Z,23.10
2022-09-06T18:36:52.864Z,23.00
2022-09-06T18:39:24.801Z,22.90
2022-09-06T18:42:00.289Z,22.70
2022-09-06T18:44:33.177Z,22.60
2022-09-06T18:47:07.122Z,22.50
2022-09-06T18:49:43.897Z,22.40
2022-09-06T18:52:16.521Z,22.40
2022-09-06T18:54:49.426Z,23.30
2022-09-06T18:57:21.234Z,22.20
2022-09-06T18:59:53.378Z,22.10
2022-09-06T19:02:26.339Z,22.10
2022-09-06T19:04:59.248Z,22.10
2022-09-06T19:07:31.321Z,22.10
2022-09-06T19:10:04.843Z,22.00
2022-09-06T19:12:36.917Z,22.00
2022-09-06T19:15:09.186Z,22.00
2022-09-06T19:17:41.234Z,22.00
2022-09-06T19:20:14.099Z,22.00
2022-09-06T19:22:46.134Z,22.00
2022-09-06T19:25:19.463Z,22.00
2022-09-06T19:27:51.517Z,22.10
2022-09-06T19:30:23.591Z,22.00
2022-09-06T19:32:55.260Z,23.10
2022-09-06T19:35:27.393Z,21.80
2022-09-06T19:37:59.040Z,21.80
2022-09-06T19:40:31.776Z,22.50
2022-09-06T19:43:03.768Z,21.70
2022-09-06T19:45:37.409Z,21.60
2022-09-06T19:48:09.135Z,21.60
2022-09-06T19:50:41.793Z,21.40
2022-09-06T19:53:13.914Z,21.30
2022-09-06T19:55:45.584Z,21.20
2022-09-06T19:58:18.115Z,21.30
2022-09-06T20:00:50.215Z,21.30
2022-09-06T20:03:21.892Z,21.30
2022-09-06T20:05:58.212Z,22.60
2022-09-06T20:08:30.073Z,21.30
2022-09-06T20:11:02.936Z,24.10
2022-09-06T20:13:35.630Z,21.40
2022-09-06T20:16:08.860Z,21.40
2022-09-06T20:18:40.774Z,21.40
2022-09-06T20:21:18.109Z,22.80
2022-09-06T20:23:50.681Z,21.40
2022-09-06T20:26:24.330Z,21.50
2022-09-06T20:28:59.994Z,21.40
2022-09-06T20:31:33.354Z,21.40
2022-09-06T20:34:06.313Z,21.40
2022-09-06T20:36:38.594Z,21.50
2022-09-06T20:39:10.898Z,21.80
2022-09-06T20:41:43.533Z,21.40
2022-09-06T20:44:15.611Z,23.90
2022-09-06T20:46:47.406Z,21.20
2022-09-06T20:49:21.892Z,21.50
2022-09-06T20:51:53.530Z,21.20
2022-09-06T20:54:28.488Z,21.00
2022-09-06T20:57:00.633Z,21.00
2022-09-06T20:59:33.190Z,21.60
2022-09-06T21:02:05.493Z,21.10
2022-09-06T21:04:38.040Z,22.20
2022-09-06T21:07:10.221Z,21.20
2022-09-06T21:09:41.989Z,21.20
2022-09-06T21:12:14.728Z,21.20
2022-09-06T21:14:46.892Z,21.20
2022-09-06T21:17:18.578Z,21.30
2022-09-06T21:19:51.100Z,21.00
2022-09-06T21:22:23.187Z,21.10
2022-09-06T21:24:55.286Z,21.20
2022-09-06T21:27:26.930Z,20.80
2022-09-06T21:29:59.467Z,20.80
2022-09-06T21:32:31.556Z,20.80
2022-09-06T21:35:03.728Z,20.90
2022-09-06T21:37:35.933Z,20.80
2022-09-06T21:40:07.915Z,20.80
2022-09-06T21:42:40.164Z,20.90
2022-09-06T21:45:13.407Z,21.00
2022-09-06T21:47:45.080Z,21.10
2022-09-06T21:50:17.921Z,21.10
2022-09-06T21:52:49.573Z,21.10
2022-09-06T21:55:22.085Z,22.00
2022-09-06T21:57:53.733Z,21.00
2022-09-06T22:00:26.826Z,21.00
2022-09-06T22:02:58.547Z,21.00
2022-09-06T22:05:31.048Z,21.10
2022-09-06T22:08:03.409Z,21.70
2022-09-06T22:10:35.509Z,21.20
2022-09-06T22:13:07.704Z,21.10
2022-09-06T22:15:39.436Z,21.70
2022-09-06T22:18:12.454Z,21.10
2022-09-06T22:20:44.147Z,21.00
2022-09-06T22:23:16.206Z,22.80
2022-09-06T22:25:47.881Z,21.10
2022-09-06T22:28:20.354Z,22.00
2022-09-06T22:30:52.005Z,21.10
2022-09-06T22:33:24.498Z,21.20
2022-09-06T22:35:56.664Z,21.30
2022-09-06T22:38:29.801Z,21.40
2022-09-06T22:41:01.853Z,21.40
2022-09-06T22:43:34.393Z,21.50
2022-09-06T22:46:07.021Z,21.50
2022-09-06T22:48:39.956Z,21.50
2022-09-06T22:51:11.752Z,22.20
2022-09-06T22:53:44.618Z,21.60
2022-09-06T22:56:16.362Z,21.60
2022-09-06T22:58:48.849Z,21.60
2022-09-06T23:01:20.577Z,21.90
2022-09-06T23:03:53.161Z,21.70
2022-09-06T23:06:25.298Z,21.90
2022-09-06T23:08:57.816Z,21.80
2022-09-06T23:11:31.799Z,21.80
2022-09-06T23:14:05.300Z,21.80
2022-09-06T23:16:39.312Z,21.80
2022-09-06T23:19:11.138Z,21.90
2022-09-06T23:21:43.624Z,21.80
2022-09-06T23:24:15.292Z,21.80
2022-09-06T23:26:47.855Z,21.90
2022-09-06T23:29:20.022Z,21.90
2022-09-06T23:31:51.767Z,22.10
2022-09-06T23:34:24.284Z,22.10
2022-09-06T23:36:59.982Z,22.00
2022-09-06T23:39:32.513Z,22.00
2022-09-06T23:42:04.256Z,21.90
2022-09-06T23:44:36.737Z,21.90
2022-09-06T23:47:08.395Z,21.90
2022-09-06T23:49:40.932Z,21.90
2022-09-06T23:52:12.712Z,21.90
2022-09-06T23:54:45.235Z,21.70
2022-09-06T23:57:17.325Z,21.60
2022-09-06T23:59:48.996Z,21.60
